Time;durP1;ratioP1;P1;durP2;ratioP2;P2;SDS_P1;SDS_P2;PMS_P1;PMS_P2;Temp;Humidity;BMP_temperature;BMP_pressure;BME280_temperature;BME280_humidity;BME280_pressure;Samples;Min_cycle;Max_cycle;Signal;HPM_P1;HPM_P2
2023/06/29 00:01:00;;;;;;;5.25;1.48;;;17.20;99.90;;;;;;4390034;32;20069;-79
2023/06/29 00:03:27;;;;;;;1.62;0.55;;;17.20;99.90;;;;;;4391658;32;20547;-77
2023/06/29 00:05:55;;;;;;;0.40;0.40;;;17.10;99.90;;;;;;4389049;32;20077;-77
2023/06/29 00:08:22;;;;;;;9.75;0.62;;;17.10;99.90;;;;;;4392370;32;20518;-77
2023/06/29 00:10:47;;;;;;;0.40;0.40;;;17.20;99.90;;;;;;4391568;32;20062;-77
2023/06/29 00:13:13;;;;;;;0.40;0.40;;;17.30;99.90;;;;;;4392961;32;20087;-79
2023/06/29 00:15:38;;;;;;;0.30;0.30;;;17.30;99.90;;;;;;4391831;32;20452;-79
2023/06/29 00:18:04;;;;;;;0.50;0.50;;;17.30;99.90;;;;;;4391421;32;20093;-79
2023/06/29 00:20:29;;;;;;;1.40;0.52;;;17.20;99.90;;;;;;4390801;32;20086;-79
2023/06/29 00:22:57;;;;;;;2.92;0.62;;;17.10;99.90;;;;;;4393107;32;20150;-78
2023/06/29 00:25:23;;;;;;;2.08;0.80;;;17.00;99.90;;;;;;4389752;32;20066;-79
2023/06/29 00:27:48;;;;;;;0.40;0.40;;;17.10;99.90;;;;;;4389972;32;20141;-79
2023/06/29 00:30:14;;;;;;;0.80;0.80;;;17.10;99.90;;;;;;4388604;32;20178;-77
2023/06/29 00:32:39;;;;;;;0.45;0.37;;;17.10;99.90;;;;;;4390688;32;20105;-79
2023/06/29 00:35:05;;;;;;;0.22;0.22;;;17.00;99.90;;;;;;4391425;32;20145;-77
2023/06/29 00:37:30;;;;;;;0.40;0.40;;;17.00;99.90;;;;;;4390776;32;20078;-76
2023/06/29 00:39:56;;;;;;;0.70;0.70;;;16.80;99.90;;;;;;4392324;32;20082;-77
2023/06/29 00:42:21;;;;;;;0.50;0.50;;;16.70;99.90;;;;;;4390973;32;20098;-78
2023/06/29 00:44:48;;;;;;;1.08;0.40;;;16.70;99.90;;;;;;4391399;32;20817;-78
2023/06/29 00:47:14;;;;;;;0.30;0.30;;;16.60;99.90;;;;;;4391867;32;20087;-78
2023/06/29 00:49:41;;;;;;;0.82;0.65;;;16.60;99.90;;;;;;4392084;32;20090;-77
2023/06/29 00:52:07;;;;;;;0.43;0.43;;;16.70;99.90;;;;;;4392773;32;20137;-78
2023/06/29 00:54:32;;;;;;;0.50;0.50;;;16.70;99.90;;;;;;4393273;32;20073;-78
2023/06/29 00:56:58;;;;;;;0.30;0.30;;;16.70;99.90;;;;;;4395317;32;20094;-77
2023/06/29 00:59:25;;;;;;;0.35;0.35;;;16.70;99.90;;;;;;4394756;32;20090;-77
2023/06/29 01:01:52;;;;;;;1.37;1.08;;;16.60;99.90;;;;;;4392257;32;20097;-78
2023/06/29 01:04:22;;;;;;;0.50;0.50;;;16.60;99.90;;;;;;4394125;32;20530;-77
2023/06/29 01:06:56;;;;;;;0.50;0.50;;;16.70;99.90;;;;;;4392868;32;20072;-79
2023/06/29 01:09:23;;;;;;;2.15;0.85;;;16.70;99.90;;;;;;4394082;32;20169;-78
2023/06/29 01:11:50;;;;;;;0.55;0.55;;;16.60;99.90;;;;;;4394012;32;20762;-78
2023/06/29 01:14:17;;;;;;;0.40;0.40;;;16.60;99.90;;;;;;4394709;32;20174;-77
2023/06/29 01:16:43;;;;;;;0.32;0.32;;;16.60;99.90;;;;;;4394938;32;20160;-78
2023/06/29 01:19:13;;;;;;;0.52;0.52;;;16.50;99.90;;;;;;4393972;32;20592;-77
2023/06/29 01:21:48;;;;;;;0.40;0.40;;;16.50;99.90;;;;;;4392308;32;20086;-78
2023/06/29 01:24:14;;;;;;;0.40;0.40;;;16.40;99.90;;;;;;4392668;32;20093;-77
2023/06/29 01:26:41;;;;;;;0.40;0.40;;;16.50;99.90;;;;;;4393722;32;20138;-78
2023/06/29 01:29:06;;;;;;;0.37;0.37;;;16.40;99.90;;;;;;4393802;32;20082;-78
2023/06/29 01:31:32;;;;;;;0.70;0.70;;;16.40;99.90;;;;;;4394124;32;20121;-78
2023/06/29 01:33:59;;;;;;;1.48;1.08;;;16.40;99.90;;;;;;4393152;32;20097;-78
2023/06/29 01:36:37;;;;;;;0.40;0.40;;;16.30;99.90;;;;;;4394271;32;20066;-77
2023/06/29 01:39:07;;;;;;;0.57;0.57;;;16.30;99.90;;;;;;4394147;32;20833;-78
2023/06/29 01:41:40;;;;;;;0.40;0.40;;;16.30;99.90;;;;;;4378835;32;20069;-77
2023/06/29 01:44:08;;;;;;;2.00;1.12;;;16.30;99.90;;;;;;4392996;32;20163;-78
2023/06/29 01:46:34;;;;;;;0.80;0.43;;;16.30;99.90;;;;;;4391943;32;20803;-77
2023/06/29 01:49:01;;;;;;;0.40;0.40;;;16.40;99.90;;;;;;4393742;32;20075;-77
2023/06/29 01:51:27;;;;;;;0.37;0.37;;;16.40;99.90;;;;;;4392809;32;21833;-77
2023/06/29 01:53:53;;;;;;;0.40;0.40;;;16.30;99.90;;;;;;4394460;32;20150;-77
2023/06/29 01:56:20;;;;;;;0.65;0.50;;;16.30;99.90;;;;;;4391292;32;20121;-78
2023/06/29 01:58:46;;;;;;;0.70;0.68;;;16.30;99.90;;;;;;4393284;32;20102;-77
2023/06/29 02:01:13;;;;;;;0.47;0.47;;;16.30;99.90;;;;;;4394058;32;20534;-77
2023/06/29 02:03:38;;;;;;;11.85;1.35;;;16.30;99.90;;;;;;4395735;32;20149;-78
2023/06/29 02:06:06;;;;;;;0.50;0.50;;;16.30;99.90;;;;;;4394349;32;20504;-77
2023/06/29 02:08:34;;;;;;;0.60;0.60;;;16.20;99.90;;;;;;4393362;32;20168;-78
2023/06/29 02:11:00;;;;;;;0.40;0.40;;;16.00;99.90;;;;;;4394946;32;20061;-77
2023/06/29 02:13:25;;;;;;;4.80;1.65;;;16.00;99.90;;;;;;4393851;32;20127;-77
2023/06/29 02:15:51;;;;;;;1.20;0.93;;;16.00;99.90;;;;;;4393469;32;20161;-77
2023/06/29 02:18:16;;;;;;;0.37;0.37;;;16.10;99.90;;;;;;4393215;32;20067;-78
2023/06/29 02:20:42;;;;;;;0.43;0.43;;;16.10;99.90;;;;;;4394260;32;20081;-78
2023/06/29 02:23:07;;;;;;;0.57;0.57;;;16.10;99.90;;;;;;4393150;32;20065;-77
2023/06/29 02:25:34;;;;;;;0.47;0.47;;;16.10;99.90;;;;;;4393945;32;20070;-77
2023/06/29 02:27:59;;;;;;;0.57;0.57;;;15.90;99.90;;;;;;4393660;32;20525;-77
2023/06/29 02:30:26;;;;;;;0.50;0.50;;;15.90;99.90;;;;;;4393216;32;20089;-77
2023/06/29 02:32:51;;;;;;;1.08;0.98;;;15.90;99.90;;;;;;4393455;32;20108;-78
2023/06/29 02:35:18;;;;;;;1.05;0.68;;;16.00;99.90;;;;;;4394130;32;20074;-77
2023/06/29 02:37:43;;;;;;;0.30;0.30;;;16.00;99.90;;;;;;4394083;32;20077;-77
2023/06/29 02:40:09;;;;;;;2.83;1.55;;;16.00;99.90;;;;;;4395441;32;20163;-77
2023/06/29 02:42:36;;;;;;;0.75;0.70;;;15.90;99.90;;;;;;4394735;32;20447;-77
2023/06/29 02:45:02;;;;;;;0.75;0.75;;;15.90;99.90;;;;;;4392760;32;20420;-77
2023/06/29 02:47:28;;;;;;;0.47;0.47;;;15.90;99.90;;;;;;4393020;32;20074;-77
2023/06/29 02:49:54;;;;;;;0.47;0.47;;;15.80;99.90;;;;;;4393161;32;20101;-78
2023/06/29 02:52:20;;;;;;;1.80;1.00;;;15.80;99.90;;;;;;4393702;32;20090;-77
2023/06/29 02:54:47;;;;;;;0.75;0.65;;;15.70;99.90;;;;;;4393660;32;20412;-77
2023/06/29 02:57:12;;;;;;;0.70;0.70;;;15.80;99.90;;;;;;4392949;32;20099;-76
2023/06/29 02:59:38;;;;;;;0.40;0.40;;;15.70;99.90;;;;;;4392683;32;20511;-78
2023/06/29 03:02:05;;;;;;;0.55;0.55;;;15.80;99.90;;;;;;4392599;32;20093;-79
2023/06/29 03:04:31;;;;;;;0.50;0.50;;;15.90;99.90;;;;;;4394569;32;20098;-78
2023/06/29 03:06:56;;;;;;;0.47;0.47;;;15.90;99.90;;;;;;4391613;32;20062;-78
2023/06/29 03:09:23;;;;;;;0.50;0.50;;;15.90;99.90;;;;;;4393991;32;20902;-78
2023/06/29 03:11:49;;;;;;;3.30;0.70;;;15.80;99.90;;;;;;4393009;32;20128;-78
2023/06/29 03:14:15;;;;;;;0.40;0.40;;;15.80;99.90;;;;;;4391708;32;20078;-78
2023/06/29 03:16:41;;;;;;;0.80;0.80;;;15.80;99.90;;;;;;4390977;32;20098;-79
2023/06/29 03:19:06;;;;;;;0.47;0.47;;;15.80;99.90;;;;;;4392723;32;20065;-78
2023/06/29 03:21:32;;;;;;;0.43;0.43;;;15.80;99.90;;;;;;4391930;32;20132;-78
2023/06/29 03:23:57;;;;;;;0.47;0.47;;;15.80;99.90;;;;;;4392841;32;20125;-79
2023/06/29 03:26:23;;;;;;;1.08;0.88;;;15.70;99.90;;;;;;4392154;32;20102;-77
2023/06/29 03:28:49;;;;;;;0.50;0.50;;;15.60;99.90;;;;;;4393910;32;20086;-78
2023/06/29 03:31:15;;;;;;;0.60;0.60;;;15.60;99.90;;;;;;4391318;32;20554;-77
2023/06/29 03:33:40;;;;;;;0.60;0.60;;;15.60;99.90;;;;;;4392543;32;20075;-77
2023/06/29 03:36:11;;;;;;;0.65;0.60;;;15.60;99.90;;;;;;4390185;32;20656;-77
2023/06/29 03:38:36;;;;;;;0.60;0.60;;;15.60;99.90;;;;;;4393565;32;20432;-78
2023/06/29 03:41:02;;;;;;;7.30;1.02;;;15.60;99.90;;;;;;4389715;32;20094;-78
2023/06/29 03:43:27;;;;;;;0.45;0.43;;;15.60;99.90;;;;;;4392032;32;20065;-77
2023/06/29 03:45:57;;;;;;;0.47;0.47;;;15.60;99.90;;;;;;4392467;32;20070;-78
2023/06/29 03:48:27;;;;;;;0.40;0.40;;;15.60;99.90;;;;;;4390757;32;20074;-77
2023/06/29 03:50:53;;;;;;;0.95;0.70;;;15.70;99.90;;;;;;4378974;32;20216;-78
2023/06/29 03:53:19;;;;;;;0.43;0.43;;;15.70;99.90;;;;;;4392383;32;20065;-78
2023/06/29 03:55:44;;;;;;;0.50;0.50;;;15.70;99.90;;;;;;4392966;32;20090;-78
2023/06/29 03:58:10;;;;;;;0.60;0.60;;;15.90;99.90;;;;;;4390923;32;20086;-78
2023/06/29 04:00:36;;;;;;;0.55;0.55;;;16.00;99.90;;;;;;4392312;32;20753;-78
2023/06/29 04:03:02;;;;;;;0.60;0.60;;;16.10;99.90;;;;;;4390894;32;20086;-78
2023/06/29 04:05:27;;;;;;;0.47;0.47;;;16.10;99.90;;;;;;4391743;32;20105;-78
2023/06/29 04:07:53;;;;;;;4.22;0.62;;;16.30;99.90;;;;;;4389624;32;20672;-77
2023/06/29 04:10:19;;;;;;;0.50;0.50;;;16.40;99.90;;;;;;4390828;32;20159;-79
2023/06/29 04:12:44;;;;;;;0.73;0.40;;;16.50;99.90;;;;;;4391836;32;20070;-78
2023/06/29 04:15:10;;;;;;;1.48;1.25;;;16.60;99.90;;;;;;4391198;32;20089;-77
2023/06/29 04:17:35;;;;;;;0.47;0.47;;;16.70;99.90;;;;;;4390552;32;20183;-78
2023/06/29 04:20:03;;;;;;;1.58;1.10;;;16.70;99.90;;;;;;4391357;32;20081;-77
2023/06/29 04:22:28;;;;;;;1.15;0.80;;;16.80;99.90;;;;;;4384704;32;20081;-78
2023/06/29 04:24:54;;;;;;;2.37;0.95;;;16.90;99.90;;;;;;4390849;32;20506;-78
2023/06/29 04:27:19;;;;;;;0.50;0.50;;;16.80;99.90;;;;;;4390715;32;20090;-77
2023/06/29 04:29:45;;;;;;;0.60;0.60;;;16.90;99.90;;;;;;4388902;32;20089;-78
2023/06/29 04:32:11;;;;;;;1.20;0.82;;;16.80;99.90;;;;;;4391810;32;20082;-77
2023/06/29 04:34:37;;;;;;;0.30;0.30;;;16.90;99.90;;;;;;4383732;32;20098;-77
2023/06/29 04:37:05;;;;;;;0.47;0.47;;;17.00;99.90;;;;;;4386792;32;20078;-77
2023/06/29 04:39:31;;;;;;;0.70;0.70;;;17.10;99.90;;;;;;4390960;32;20493;-78
2023/06/29 04:42:00;;;;;;;0.88;0.70;;;17.20;99.90;;;;;;4390167;32;20101;-78
2023/06/29 04:44:31;;;;;;;1.00;0.77;;;17.10;99.90;;;;;;4389013;32;20103;-78
2023/06/29 04:47:00;;;;;;;;;;;17.10;99.90;;;;;;4391003;32;20089;-77
2023/06/29 04:49:31;;;;;;;0.80;0.77;;;17.20;99.90;;;;;;4391413;32;20033;-78
2023/06/29 04:51:59;;;;;;;0.43;0.40;;;17.40;99.90;;;;;;4388725;32;20218;-78
2023/06/29 04:54:26;;;;;;;0.70;0.70;;;17.50;99.90;;;;;;4388555;32;20164;-80
2023/06/29 04:56:53;;;;;;;0.60;0.60;;;17.50;99.90;;;;;;4390971;32;20461;-78
2023/06/29 04:59:23;;;;;;;0.55;0.55;;;17.60;99.90;;;;;;4390541;32;20097;-77
2023/06/29 05:01:49;;;;;;;0.70;0.70;;;17.70;99.90;;;;;;4385860;32;20110;-78
2023/06/29 05:04:14;;;;;;;0.50;0.50;;;17.80;99.90;;;;;;4389163;32;20078;-78
2023/06/29 05:06:40;;;;;;;1.48;0.70;;;17.90;99.90;;;;;;4388908;32;20082;-79
2023/06/29 05:09:07;;;;;;;1.12;0.55;;;18.00;99.90;;;;;;4392433;32;20510;-79
2023/06/29 05:11:35;;;;;;;0.57;0.57;;;18.10;99.90;;;;;;4389380;32;20066;-78
2023/06/29 05:14:00;;;;;;;1.08;0.73;;;18.10;99.90;;;;;;4389880;32;20061;-79
2023/06/29 05:16:26;;;;;;;0.47;0.47;;;18.10;99.90;;;;;;4390314;32;20110;-78
2023/06/29 05:18:52;;;;;;;22.48;1.08;;;18.10;99.90;;;;;;4379485;32;20278;-80
2023/06/29 05:21:18;;;;;;;0.30;0.30;;;18.20;99.90;;;;;;4388654;32;20069;-79
2023/06/29 05:23:44;;;;;;;0.47;0.47;;;18.20;99.90;;;;;;4389278;32;21197;-79
2023/06/29 05:26:10;;;;;;;0.70;0.60;;;18.20;99.90;;;;;;4386677;32;20070;-79
2023/06/29 05:28:37;;;;;;;0.50;0.50;;;18.30;99.90;;;;;;4381148;32;20193;-78
2023/06/29 05:31:03;;;;;;;0.55;0.55;;;18.30;99.90;;;;;;4378070;32;20240;-78
2023/06/29 05:33:28;;;;;;;0.60;0.60;;;18.40;99.90;;;;;;4381215;32;20531;-79
2023/06/29 05:35:54;;;;;;;0.40;0.40;;;18.40;99.90;;;;;;4389263;32;20082;-79
2023/06/29 05:38:21;;;;;;;0.62;0.57;;;18.50;99.90;;;;;;4387661;32;20189;-79
2023/06/29 05:40:47;;;;;;;4.60;1.62;;;18.50;99.90;;;;;;4392218;32;20534;-78
2023/06/29 05:43:14;;;;;;;0.60;0.60;;;18.60;99.90;;;;;;4393732;32;20061;-79
2023/06/29 05:45:40;;;;;;;0.80;0.77;;;18.60;99.90;;;;;;4391696;32;20125;-79
2023/06/29 05:48:06;;;;;;;3.10;1.40;;;18.70;99.90;;;;;;4391718;32;20102;-79
2023/06/29 05:50:32;;;;;;;0.30;0.30;;;18.70;99.90;;;;;;4391044;32;20109;-79
2023/06/29 05:52:57;;;;;;;0.40;0.40;;;18.70;99.90;;;;;;4392317;32;20058;-80
2023/06/29 05:55:24;;;;;;;4.50;1.25;;;18.80;99.90;;;;;;4391159;32;20125;-79
2023/06/29 05:57:51;;;;;;;0.30;0.30;;;18.90;99.90;;;;;;4393731;32;20070;-79
2023/06/29 06:00:18;;;;;;;0.98;0.55;;;18.90;99.90;;;;;;4392613;32;20077;-79
2023/06/29 06:02:45;;;;;;;0.43;0.43;;;19.00;99.90;;;;;;4393007;32;20512;-78
2023/06/29 06:05:10;;;;;;;3.42;1.45;;;19.10;99.90;;;;;;4393009;32;20066;-79
2023/06/29 06:07:38;;;;;;;0.57;0.57;;;19.10;99.90;;;;;;4390890;32;20117;-79
2023/06/29 06:10:03;;;;;;;0.43;0.43;;;19.10;99.90;;;;;;4391695;32;20157;-80
2023/06/29 06:12:29;;;;;;;0.35;0.35;;;19.10;99.90;;;;;;4390232;32;20612;-78
2023/06/29 06:14:56;;;;;;;0.30;0.30;;;19.10;99.90;;;;;;4389759;32;20089;-79
2023/06/29 06:17:22;;;;;;;0.45;0.45;;;19.10;99.90;;;;;;4388857;32;20086;-80
2023/06/29 06:19:47;;;;;;;1.45;1.20;;;19.20;99.90;;;;;;4391651;32;20147;-79
2023/06/29 06:22:13;;;;;;;0.30;0.30;;;19.40;99.90;;;;;;4387849;32;20093;-79
2023/06/29 06:24:40;;;;;;;0.40;0.40;;;19.50;99.90;;;;;;4386989;32;20129;-78
2023/06/29 06:27:07;;;;;;;0.40;0.40;;;19.60;99.90;;;;;;4385847;32;20209;-80
2023/06/29 06:29:32;;;;;;;0.32;0.32;;;19.80;99.90;;;;;;4389139;32;20141;-79
2023/06/29 06:31:58;;;;;;;2.22;0.70;;;19.90;99.90;;;;;;4392299;32;20111;-79
2023/06/29 06:34:30;;;;;;;0.40;0.40;;;19.90;99.90;;;;;;4388593;32;20167;-79
2023/06/29 06:36:57;;;;;;;0.35;0.35;;;19.90;99.90;;;;;;4388759;32;20113;-78
2023/06/29 06:39:23;;;;;;;0.47;0.47;;;20.00;99.90;;;;;;4388737;32;20529;-79
2023/06/29 06:41:49;;;;;;;0.40;0.40;;;20.00;99.90;;;;;;4391982;32;20069;-80
2023/06/29 06:44:15;;;;;;;0.90;0.62;;;20.00;99.90;;;;;;4394178;32;20089;-79
2023/06/29 06:46:40;;;;;;;0.40;0.40;;;20.00;99.90;;;;;;4387284;32;20081;-79
2023/06/29 06:49:24;;;;;;;0.30;0.30;;;20.00;99.90;;;;;;4393057;32;20082;-79
2023/06/29 06:51:51;;;;;;;0.40;0.40;;;20.10;99.90;;;;;;4390641;32;20093;-79
2023/06/29 06:54:24;;;;;;;0.40;0.40;;;20.20;99.90;;;;;;4396309;32;20065;-81
2023/06/29 06:56:51;;;;;;;2.53;0.40;;;20.20;99.90;;;;;;4396103;32;20550;-79
2023/06/29 06:59:20;;;;;;;0.30;0.30;;;20.30;99.90;;;;;;4395243;32;20109;-78
2023/06/29 07:01:47;;;;;;;0.40;0.40;;;20.20;99.90;;;;;;4392539;32;20074;-78
2023/06/29 07:04:15;;;;;;;0.30;0.30;;;20.20;99.90;;;;;;4381437;32;20488;-79
2023/06/29 07:06:40;;;;;;;2.22;1.37;;;20.10;99.90;;;;;;4382484;32;20249;-78
2023/06/29 07:09:15;;;;;;;0.50;0.50;;;20.20;99.90;;;;;;4389166;32;20175;-80
2023/06/29 07:11:40;;;;;;;5.18;0.50;;;20.30;99.90;;;;;;4386334;32;20109;-79
2023/06/29 07:14:06;;;;;;;0.43;0.43;;;20.30;99.90;;;;;;4390186;32;20086;-80
2023/06/29 07:16:37;;;;;;;0.35;0.35;;;20.40;99.90;;;;;;4395753;32;20404;-79
2023/06/29 07:19:04;;;;;;;0.30;0.30;;;20.40;99.90;;;;;;4389209;32;20069;-79
2023/06/29 07:21:31;;;;;;;1.30;0.40;;;20.50;99.90;;;;;;4389470;32;20086;-78
2023/06/29 07:23:56;;;;;;;0.30;0.30;;;20.50;99.90;;;;;;4387846;32;20078;-78
2023/06/29 07:26:22;;;;;;;0.30;0.30;;;20.40;99.90;;;;;;4385209;32;20490;-78
2023/06/29 07:28:48;;;;;;;0.30;0.30;;;20.40;99.90;;;;;;4386488;32;20188;-79
2023/06/29 07:31:15;;;;;;;0.68;0.52;;;20.50;99.90;;;;;;4387142;32;20117;-79
2023/06/29 07:33:42;;;;;;;0.40;0.40;;;20.70;99.90;;;;;;4390155;32;20379;-78
2023/06/29 07:36:08;;;;;;;6.80;1.02;;;20.70;99.90;;;;;;4384602;32;20656;-78
2023/06/29 07:38:34;;;;;;;0.30;0.30;;;20.80;99.90;;;;;;4387088;32;20901;-78
2023/06/29 07:41:03;;;;;;;0.80;0.50;;;20.80;99.90;;;;;;4387263;32;20085;-78
2023/06/29 07:43:30;;;;;;;0.30;0.30;;;20.70;99.90;;;;;;4388158;32;20149;-78
2023/06/29 07:45:56;;;;;;;4.40;1.40;;;20.80;99.90;;;;;;4388329;32;20106;-78
2023/06/29 07:48:22;;;;;;;0.47;0.47;;;20.80;99.90;;;;;;4384249;32;20979;-79
2023/06/29 07:50:49;;;;;;;0.43;0.43;;;20.90;99.90;;;;;;4387447;32;20138;-77
2023/06/29 07:53:16;;;;;;;0.47;0.47;;;21.00;99.90;;;;;;4385944;32;20535;-78
2023/06/29 07:55:41;;;;;;;0.32;0.32;;;21.00;99.90;;;;;;4381885;32;20074;-77
2023/06/29 07:58:07;;;;;;;0.50;0.50;;;21.00;99.90;;;;;;4383151;32;20113;-79
2023/06/29 08:00:33;;;;;;;0.65;0.43;;;21.00;99.90;;;;;;4386810;32;20089;-79
2023/06/29 08:02:59;;;;;;;1.55;0.75;;;20.90;99.90;;;;;;4385489;32;20094;-78
2023/06/29 08:05:24;;;;;;;1.77;0.70;;;20.90;99.90;;;;;;4383400;32;20077;-78
2023/06/29 08:07:51;;;;;;;2.20;1.02;;;20.90;99.90;;;;;;4386885;32;20085;-78
2023/06/29 08:10:17;;;;;;;0.35;0.35;;;21.00;99.90;;;;;;4386358;32;20062;-79
2023/06/29 08:12:45;;;;;;;0.45;0.43;;;21.00;99.90;;;;;;4386433;32;20098;-79
2023/06/29 08:15:11;;;;;;;7.37;1.20;;;21.00;99.90;;;;;;4374309;32;20204;-78
2023/06/29 08:17:40;;;;;;;0.25;0.25;;;21.10;99.90;;;;;;4387394;32;20097;-78
2023/06/29 08:20:12;;;;;;;0.32;0.32;;;21.10;99.90;;;;;;4385193;32;20106;-77
2023/06/29 08:22:38;;;;;;;0.45;0.45;;;21.20;99.90;;;;;;4387079;32;20078;-78
2023/06/29 08:25:04;;;;;;;0.32;0.32;;;21.20;99.90;;;;;;4382049;32;20139;-80
2023/06/29 08:27:31;;;;;;;0.37;0.37;;;21.20;99.90;;;;;;4386326;32;20220;-79
2023/06/29 08:29:56;;;;;;;0.30;0.30;;;21.30;99.90;;;;;;4382078;32;20123;-78
2023/06/29 08:32:22;;;;;;;0.50;0.50;;;21.30;99.90;;;;;;4382129;32;20106;-79
2023/06/29 08:34:50;;;;;;;1.25;0.60;;;21.30;99.90;;;;;;4389611;32;20098;-79
2023/06/29 08:37:15;;;;;;;0.68;0.57;;;21.30;99.90;;;;;;4383737;32;20094;-78
2023/06/29 08:39:41;;;;;;;1.75;1.05;;;21.30;99.90;;;;;;4387432;32;20092;-78
2023/06/29 08:42:07;;;;;;;0.30;0.30;;;21.40;99.90;;;;;;4386035;32;20094;-79
2023/06/29 08:44:33;;;;;;;0.47;0.47;;;21.40;99.90;;;;;;4385925;32;20136;-78
2023/06/29 08:47:02;;;;;;;1.08;0.98;;;21.40;99.90;;;;;;4388294;32;20098;-78
2023/06/29 08:49:28;;;;;;;1.05;0.80;;;21.40;99.90;;;;;;4385297;32;20261;-77
2023/06/29 08:52:06;;;;;;;0.47;0.47;;;21.40;99.90;;;;;;4391861;32;20062;-77
2023/06/29 08:54:35;;;;;;;0.40;0.40;;;21.30;99.90;;;;;;4393045;32;20143;-75
2023/06/29 08:57:02;;;;;;;0.88;0.55;;;21.30;99.90;;;;;;4400358;32;20132;-78
2023/06/29 08:59:28;;;;;;;0.30;0.30;;;21.40;99.90;;;;;;4396444;32;20122;-77
2023/06/29 09:01:58;;;;;;;0.30;0.30;;;21.40;99.90;;;;;;4392682;32;20090;-77
2023/06/29 09:04:25;;;;;;;0.40;0.40;;;21.40;99.90;;;;;;4395556;32;20204;-78
2023/06/29 09:06:56;;;;;;;0.50;0.50;;;21.60;99.90;;;;;;4388374;32;20535;-79
2023/06/29 09:09:22;;;;;;;0.28;0.28;;;21.50;99.90;;;;;;4388247;32;20077;-77
2023/06/29 09:11:51;;;;;;;0.30;0.30;;;21.50;99.90;;;;;;4386710;32;20081;-79
2023/06/29 09:14:17;;;;;;;0.35;0.35;;;21.50;99.90;;;;;;4383335;32;20165;-77
2023/06/29 09:16:53;;;;;;;0.30;0.30;;;21.60;99.90;;;;;;4382921;32;20093;-77
2023/06/29 09:19:20;;;;;;;0.40;0.40;;;21.70;99.90;;;;;;4382365;32;20988;-79
2023/06/29 09:21:47;;;;;;;0.57;0.57;;;21.80;99.90;;;;;;4388086;32;20089;-79
2023/06/29 09:24:14;;;;;;;0.30;0.30;;;21.80;99.90;;;;;;4385687;32;20400;-78
2023/06/29 09:26:40;;;;;;;0.32;0.32;;;21.80;99.90;;;;;;4377961;32;20529;-77
2023/06/29 09:29:06;;;;;;;0.40;0.40;;;21.90;99.90;;;;;;4385576;32;20164;-77
2023/06/29 09:31:35;;;;;;;0.30;0.30;;;21.90;99.90;;;;;;4380128;32;20089;-78
2023/06/29 09:34:17;;;;;;;0.25;0.25;;;21.90;99.90;;;;;;4384525;32;20197;-76
2023/06/29 09:36:44;;;;;;;0.20;0.20;;;22.00;99.90;;;;;;4379843;32;20879;-76
2023/06/29 09:39:17;;;;;;;0.40;0.40;;;22.00;99.90;;;;;;4386950;32;20149;-78
2023/06/29 09:41:47;;;;;;;0.40;0.40;;;21.90;99.90;;;;;;4382399;32;20090;-76
2023/06/29 09:44:16;;;;;;;0.60;0.50;;;21.80;99.90;;;;;;4380298;32;20098;-76
2023/06/29 09:46:43;;;;;;;0.40;0.40;;;21.90;99.90;;;;;;4383166;32;20093;-76
2023/06/29 09:49:09;;;;;;;0.77;0.52;;;22.10;99.90;;;;;;4386265;32;20066;-76
2023/06/29 09:51:36;;;;;;;0.40;0.40;;;22.10;99.90;;;;;;4390222;32;20335;-77
2023/06/29 09:54:02;;;;;;;0.30;0.30;;;22.20;99.90;;;;;;4385117;32;20088;-78
2023/06/29 09:56:30;;;;;;;2.00;1.05;;;22.20;99.90;;;;;;4380864;32;20079;-76
2023/06/29 09:58:56;;;;;;;0.65;0.65;;;22.20;99.90;;;;;;4384876;32;20206;-77
2023/06/29 10:01:26;;;;;;;0.95;0.40;;;22.20;99.90;;;;;;4382972;32;20089;-78
2023/06/29 10:03:51;;;;;;;5.97;0.80;;;22.20;99.90;;;;;;4383040;32;20085;-78
2023/06/29 10:06:25;;;;;;;0.32;0.32;;;22.40;99.90;;;;;;4382214;32;21011;-77
2023/06/29 10:08:55;;;;;;;0.22;0.22;;;22.50;99.90;;;;;;4387766;32;20565;-79
2023/06/29 10:11:26;;;;;;;0.30;0.30;;;22.60;99.90;;;;;;4383811;32;20101;-78
2023/06/29 10:14:01;;;;;;;0.32;0.32;;;22.70;99.90;;;;;;4370144;32;20126;-77
2023/06/29 10:16:28;;;;;;;0.17;0.17;;;22.80;99.90;;;;;;4384353;32;20224;-76
2023/06/29 10:19:06;;;;;;;0.37;0.37;;;23.00;99.90;;;;;;4383612;32;20106;-77
2023/06/29 10:21:32;;;;;;;4.20;0.40;;;23.10;99.90;;;;;;4386911;32;20070;-77
2023/06/29 10:23:58;;;;;;;0.50;0.50;;;23.30;99.90;;;;;;4386296;32;20272;-78
2023/06/29 10:26:24;;;;;;;0.30;0.30;;;23.60;99.90;;;;;;4386630;32;20103;-77
2023/06/29 10:28:50;;;;;;;0.35;0.35;;;23.60;99.90;;;;;;4385520;32;20488;-78
2023/06/29 10:31:19;;;;;;;0.45;0.45;;;23.60;99.90;;;;;;4381827;32;20085;-78
2023/06/29 10:33:47;;;;;;;2.60;0.68;;;23.80;99.90;;;;;;4390449;32;20160;-79
2023/06/29 10:36:14;;;;;;;0.20;0.20;;;24.10;99.90;;;;;;4394056;32;20106;-79
2023/06/29 10:38:41;;;;;;;0.17;0.17;;;24.60;99.90;;;;;;4386639;32;20581;-77
2023/06/29 10:41:25;;;;;;;0.32;0.32;;;25.00;99.90;;;;;;4390497;32;20162;-78
2023/06/29 10:43:59;;;;;;;0.40;0.40;;;25.00;99.90;;;;;;4372745;32;20086;-78
2023/06/29 10:46:45;;;;;;;0.20;0.20;;;25.10;99.90;;;;;;4380920;32;20101;-78
2023/06/29 10:49:26;;;;;;;0.28;0.28;;;25.20;99.90;;;;;;4374545;32;20094;-77
2023/06/29 10:52:00;;;;;;;0.25;0.25;;;24.90;99.90;;;;;;4385860;32;20085;-77
2023/06/29 10:54:26;;;;;;;0.20;0.20;;;24.70;99.90;;;;;;4385981;32;20505;-77
2023/06/29 10:57:07;;;;;;;0.22;0.22;;;24.70;99.90;;;;;;4381445;32;20099;-79
2023/06/29 10:59:36;;;;;;;0.17;0.17;;;24.70;99.90;;;;;;4382576;32;20105;-81
2023/06/29 11:02:03;;;;;;;0.32;0.32;;;24.80;99.90;;;;;;4383713;32;20070;-77
2023/06/29 11:04:29;;;;;;;0.20;0.20;;;24.80;99.90;;;;;;4386401;32;21256;-78
2023/06/29 11:06:54;;;;;;;0.60;0.30;;;24.90;99.90;;;;;;4385582;32;20209;-78
2023/06/29 11:09:20;;;;;;;13.13;0.62;;;24.80;99.90;;;;;;4385078;32;20090;-78
2023/06/29 11:11:48;;;;;;;0.30;0.30;;;24.90;99.90;;;;;;4388919;32;20105;-79
2023/06/29 11:14:14;;;;;;;0.47;0.43;;;24.90;99.90;;;;;;4389163;32;20225;-80
2023/06/29 11:16:40;;;;;;;0.20;0.20;;;25.10;99.90;;;;;;4392360;32;20093;-79
2023/06/29 11:19:06;;;;;;;0.30;0.30;;;25.30;99.90;;;;;;4390957;32;20152;-78
2023/06/29 11:21:32;;;;;;;0.30;0.30;;;25.40;99.90;;;;;;4390730;32;20074;-78
2023/06/29 11:23:58;;;;;;;0.20;0.20;;;25.40;99.90;;;;;;4392732;32;20133;-79
2023/06/29 11:26:26;;;;;;;0.20;0.20;;;25.40;99.90;;;;;;4394840;32;20094;-79
2023/06/29 11:28:52;;;;;;;0.25;0.25;;;25.30;99.90;;;;;;4389307;32;20093;-77
2023/06/29 11:31:19;;;;;;;0.10;0.10;;;25.30;99.90;;;;;;4388107;32;20114;-77
2023/06/29 11:33:47;;;;;;;0.30;0.30;;;25.40;99.90;;;;;;4385275;32;20074;-78
2023/06/29 11:36:13;;;;;;;0.20;0.20;;;25.40;99.90;;;;;;4388956;32;20089;-78
2023/06/29 11:38:38;;;;;;;0.20;0.20;;;25.40;99.90;;;;;;4384159;32;20553;-79
2023/06/29 11:41:05;;;;;;;0.10;0.10;;;25.70;99.90;;;;;;4383738;32;20649;-79
2023/06/29 11:43:31;;;;;;;0.30;0.30;;;25.80;99.90;;;;;;4388117;32;20165;-78
2023/06/29 11:45:57;;;;;;;0.85;0.65;;;25.70;99.90;;;;;;4382692;32;153173;-78
2023/06/29 11:48:23;;;;;;;0.25;0.25;;;25.60;99.90;;;;;;4389186;32;20113;-79
2023/06/29 11:50:50;;;;;;;0.30;0.30;;;25.50;99.90;;;;;;4389366;32;20107;-78
2023/06/29 11:53:17;;;;;;;23.40;0.57;;;25.50;99.90;;;;;;4387958;32;20542;-78
2023/06/29 11:55:50;;;;;;;0.57;0.57;;;25.40;99.90;;;;;;4392109;32;20098;-78
2023/06/29 11:58:15;;;;;;;0.43;0.43;;;25.30;99.90;;;;;;4389925;32;20125;-79
2023/06/29 12:00:41;;;;;;;0.28;0.28;;;25.30;99.90;;;;;;4383376;32;20515;-77
2023/06/29 12:03:09;;;;;;;0.10;0.10;;;25.40;99.90;;;;;;4390297;32;20114;-79
2023/06/29 12:05:41;;;;;;;0.20;0.20;;;25.30;99.90;;;;;;4392145;32;20533;-79
2023/06/29 12:08:08;;;;;;;0.13;0.13;;;25.40;99.90;;;;;;4384070;32;20082;-78
2023/06/29 12:10:37;;;;;;;0.28;0.22;;;25.60;99.90;;;;;;4389074;32;20645;-77
2023/06/29 12:13:04;;;;;;;0.13;0.13;;;25.70;99.90;;;;;;4388069;32;20810;-77
2023/06/29 12:15:32;;;;;;;2.22;0.50;;;25.90;99.90;;;;;;4390795;32;20683;-78
2023/06/29 12:18:14;;;;;;;0.30;0.30;;;25.90;99.90;;;;;;4391779;32;20102;-78
2023/06/29 12:20:44;;;;;;;0.37;0.37;;;26.20;99.90;;;;;;4387634;32;20122;-79
2023/06/29 12:23:14;;;;;;;0.25;0.25;;;26.00;99.90;;;;;;4386898;32;20086;-79
2023/06/29 12:25:46;;;;;;;8.18;0.65;;;26.40;99.90;;;;;;4390806;32;20093;-77
2023/06/29 12:28:12;;;;;;;0.20;0.20;;;26.50;99.90;;;;;;4386482;32;20109;-77
2023/06/29 12:30:39;;;;;;;0.40;0.40;;;26.70;99.90;;;;;;4388128;32;20633;-76
2023/06/29 12:33:06;;;;;;;0.28;0.28;;;26.90;99.90;;;;;;4385251;32;20613;-78
2023/06/29 12:35:35;;;;;;;0.40;0.40;;;26.80;99.90;;;;;;4386821;32;20109;-79
2023/06/29 12:38:00;;;;;;;0.30;0.30;;;26.60;99.90;;;;;;4381795;32;21406;-78
2023/06/29 12:40:27;;;;;;;0.80;0.30;;;26.50;99.90;;;;;;4382719;32;20093;-79
2023/06/29 12:42:55;;;;;;;0.32;0.20;;;26.40;99.90;;;;;;4384940;32;20557;-77
2023/06/29 12:45:22;;;;;;;0.80;0.52;;;26.30;99.90;;;;;;4377796;32;20562;-78
2023/06/29 12:47:58;;;;;;;0.15;0.15;;;25.90;99.90;;;;;;4384644;32;20084;-81